sensor_id;sensor_type;location;lat;lon;timestamp;temperature;humidity
3256;DHT22;1640;48.504;9.224;2023-05-27T00:02:10;14.20;23.60
3256;DHT22;1640;48.504;9.224;2023-05-27T00:04:38;14.00;25.20
3256;DHT22;1640;48.504;9.224;2023-05-27T00:07:05;14.00;22.10
3256;DHT22;1640;48.504;9.224;2023-05-27T00:09:34;13.90;24.00
3256;DHT22;1640;48.504;9.224;2023-05-27T00:12:01;13.90;26.80
3256;DHT22;1640;48.504;9.224;2023-05-27T00:14:29;13.80;24.80
3256;DHT22;1640;48.504;9.224;2023-05-27T00:16:56;13.80;24.10
3256;DHT22;1640;48.504;9.224;2023-05-27T00:19:25;13.80;26.10
3256;DHT22;1640;48.504;9.224;2023-05-27T00:21:52;13.70;25.60
3256;DHT22;1640;48.504;9.224;2023-05-27T00:24:20;13.70;24.90
3256;DHT22;1640;48.504;9.224;2023-05-27T00:26:49;13.70;26.40
3256;DHT22;1640;48.504;9.224;2023-05-27T00:29:17;13.70;26.00
3256;DHT22;1640;48.504;9.224;2023-05-27T00:31:45;13.60;25.80
3256;DHT22;1640;48.504;9.224;2023-05-27T00:34:12;13.60;26.30
3256;DHT22;1640;48.504;9.224;2023-05-27T00:36:40;13.50;26.30
3256;DHT22;1640;48.504;9.224;2023-05-27T00:39:07;13.50;28.20
3256;DHT22;1640;48.504;9.224;2023-05-27T00:41:35;13.50;27.60
3256;DHT22;1640;48.504;9.224;2023-05-27T00:44:04;13.40;25.90
3256;DHT22;1640;48.504;9.224;2023-05-27T00:46:31;13.40;28.30
3256;DHT22;1640;48.504;9.224;2023-05-27T00:48:59;13.40;29.20
3256;DHT22;1640;48.504;9.224;2023-05-27T00:51:26;13.30;27.80
3256;DHT22;1640;48.504;9.224;2023-05-27T00:53:55;13.30;27.60
3256;DHT22;1640;48.504;9.224;2023-05-27T00:56:22;13.20;28.70
3256;DHT22;1640;48.504;9.224;2023-05-27T00:58:51;13.20;32.60
3256;DHT22;1640;48.504;9.224;2023-05-27T01:01:20;13.10;29.80
3256;DHT22;1640;48.504;9.224;2023-05-27T01:03:51;13.10;29.00
3256;DHT22;1640;48.504;9.224;2023-05-27T01:06:24;13.00;27.90
3256;DHT22;1640;48.504;9.224;2023-05-27T01:09:04;13.00;26.80
3256;DHT22;1640;48.504;9.224;2023-05-27T01:11:42;12.90;27.60
3256;DHT22;1640;48.504;9.224;2023-05-27T01:14:11;12.80;25.50
3256;DHT22;1640;48.504;9.224;2023-05-27T01:16:43;12.80;24.70
3256;DHT22;1640;48.504;9.224;2023-05-27T01:19:13;12.70;24.10
3256;DHT22;1640;48.504;9.224;2023-05-27T01:21:47;12.70;22.90
3256;DHT22;1640;48.504;9.224;2023-05-27T01:24:18;12.60;21.90
3256;DHT22;1640;48.504;9.224;2023-05-27T01:26:46;12.60;21.00
3256;DHT22;1640;48.504;9.224;2023-05-27T01:29:14;12.50;20.30
3256;DHT22;1640;48.504;9.224;2023-05-27T01:31:45;12.40;18.80
3256;DHT22;1640;48.504;9.224;2023-05-27T01:34:18;12.40;17.20
3256;DHT22;1640;48.504;9.224;2023-05-27T01:36:53;12.40;19.40
3256;DHT22;1640;48.504;9.224;2023-05-27T01:39:26;12.30;19.00
3256;DHT22;1640;48.504;9.224;2023-05-27T01:41:55;12.20;17.00
3256;DHT22;1640;48.504;9.224;2023-05-27T01:44:23;12.20;16.50
3256;DHT22;1640;48.504;9.224;2023-05-27T01:46:51;12.20;17.40
3256;DHT22;1640;48.504;9.224;2023-05-27T01:49:18;12.10;16.70
3256;DHT22;1640;48.504;9.224;2023-05-27T01:51:46;12.10;16.40
3256;DHT22;1640;48.504;9.224;2023-05-27T01:54:13;12.00;14.90
3256;DHT22;1640;48.504;9.224;2023-05-27T01:56:42;12.00;14.30
3256;DHT22;1640;48.504;9.224;2023-05-27T01:59:10;11.90;13.80
3256;DHT22;1640;48.504;9.224;2023-05-27T02:01:37;11.90;12.90
3256;DHT22;1640;48.504;9.224;2023-05-27T02:04:05;11.90;14.10
3256;DHT22;1640;48.504;9.224;2023-05-27T02:06:32;11.90;13.80
3256;DHT22;1640;48.504;9.224;2023-05-27T02:09:00;11.80;12.70
3256;DHT22;1640;48.504;9.224;2023-05-27T02:11:27;11.80;12.50
3256;DHT22;1640;48.504;9.224;2023-05-27T02:13:56;11.70;9.80
3256;DHT22;1640;48.504;9.224;2023-05-27T02:16:25;11.70;8.30
3256;DHT22;1640;48.504;9.224;2023-05-27T02:18:52;11.60;7.50
3256;DHT22;1640;48.504;9.224;2023-05-27T02:21:20;11.60;6.60
3256;DHT22;1640;48.504;9.224;2023-05-27T02:23:48;11.60;5.80
3256;DHT22;1640;48.504;9.224;2023-05-27T02:26:15;11.50;4.10
3256;DHT22;1640;48.504;9.224;2023-05-27T02:28:43;11.50;4.80
3256;DHT22;1640;48.504;9.224;2023-05-27T02:31:12;11.50;3.90
3256;DHT22;1640;48.504;9.224;2023-05-27T02:33:39;11.40;4.80
3256;DHT22;1640;48.504;9.224;2023-05-27T02:36:07;11.40;0.70
3256;DHT22;1640;48.504;9.224;2023-05-27T02:38:37;11.40;99.90
3256;DHT22;1640;48.504;9.224;2023-05-27T02:41:04;11.30;0.80
3256;DHT22;1640;48.504;9.224;2023-05-27T02:43:32;11.30;0.50
3256;DHT22;1640;48.504;9.224;2023-05-27T02:45:59;11.30;99.90
3256;DHT22;1640;48.504;9.224;2023-05-27T02:48:28;11.30;1.90
3256;DHT22;1640;48.504;9.224;2023-05-27T02:50:56;11.30;2.80
3256;DHT22;1640;48.504;9.224;2023-05-27T02:53:23;11.30;3.80
3256;DHT22;1640;48.504;9.224;2023-05-27T02:55:51;11.20;2.30
3256;DHT22;1640;48.504;9.224;2023-05-27T02:58:19;11.20;1.70
3256;DHT22;1640;48.504;9.224;2023-05-27T03:00:46;11.20;0.50
3256;DHT22;1640;48.504;9.224;2023-05-27T03:03:14;11.20;99.90
3256;DHT22;1640;48.504;9.224;2023-05-27T03:05:43;11.10;99.90
3256;DHT22;1640;48.504;9.224;2023-05-27T03:08:10;11.10;99.90
3256;DHT22;1640;48.504;9.224;2023-05-27T03:10:38;11.10;99.90
3256;DHT22;1640;48.504;9.224;2023-05-27T03:13:05;11.10;99.90
3256;DHT22;1640;48.504;9.224;2023-05-27T03:15:33;11.00;99.90
3256;DHT22;1640;48.504;9.224;2023-05-27T03:18:01;11.00;99.90
3256;DHT22;1640;48.504;9.224;2023-05-27T03:20:29;11.00;99.90
3256;DHT22;1640;48.504;9.224;2023-05-27T03:22:58;10.90;99.90
3256;DHT22;1640;48.504;9.224;2023-05-27T03:25:25;10.90;99.90
3256;DHT22;1640;48.504;9.224;2023-05-27T03:27:54;10.90;99.90
3256;DHT22;1640;48.504;9.224;2023-05-27T03:30:22;10.90;99.90
3256;DHT22;1640;48.504;9.224;2023-05-27T03:32:49;10.80;99.90
3256;DHT22;1640;48.504;9.224;2023-05-27T03:35:17;10.80;99.90
3256;DHT22;1640;48.504;9.224;2023-05-27T03:37:44;10.80;99.90
3256;DHT22;1640;48.504;9.224;2023-05-27T03:40:14;10.80;99.90
3256;DHT22;1640;48.504;9.224;2023-05-27T03:42:41;10.80;99.90
3256;DHT22;1640;48.504;9.224;2023-05-27T03:45:09;10.80;99.90
3256;DHT22;1640;48.504;9.224;2023-05-27T03:47:37;10.80;99.90
3256;DHT22;1640;48.504;9.224;2023-05-27T03:50:05;10.80;99.90
3256;DHT22;1640;48.504;9.224;2023-05-27T03:52:33;10.80;99.90
3256;DHT22;1640;48.504;9.224;2023-05-27T03:55:00;10.80;99.90
3256;DHT22;1640;48.504;9.224;2023-05-27T03:57:29;10.80;99.90
3256;DHT22;1640;48.504;9.224;2023-05-27T03:59:56;10.80;99.90
3256;DHT22;1640;48.504;9.224;2023-05-27T04:02:24;10.80;99.90
3256;DHT22;1640;48.504;9.224;2023-05-27T04:04:51;10.80;99.90
3256;DHT22;1640;48.504;9.224;2023-05-27T04:07:19;10.80;99.90
3256;DHT22;1640;48.504;9.224;2023-05-27T04:09:52;10.80;99.90
3256;DHT22;1640;48.504;9.224;2023-05-27T04:12:20;10.80;99.90
3256;DHT22;1640;48.504;9.224;2023-05-27T04:14:49;10.90;99.90
3256;DHT22;1640;48.504;9.224;2023-05-27T04:17:16;10.90;99.90
3256;DHT22;1640;48.504;9.224;2023-05-27T04:19:45;10.90;99.90
3256;DHT22;1640;48.504;9.224;2023-05-27T04:22:15;11.00;99.90
3256;DHT22;1640;48.504;9.224;2023-05-27T04:24:42;11.00;99.90
3256;DHT22;1640;48.504;9.224;2023-05-27T04:27:10;11.10;99.90
3256;DHT22;1640;48.504;9.224;2023-05-27T04:29:39;11.10;99.90
3256;DHT22;1640;48.504;9.224;2023-05-27T04:32:10;11.20;99.90
3256;DHT22;1640;48.504;9.224;2023-05-27T04:34:38;11.30;99.90
3256;DHT22;1640;48.504;9.224;2023-05-27T04:37:07;11.40;99.90
3256;DHT22;1640;48.504;9.224;2023-05-27T04:39:36;11.40;99.90
3256;DHT22;1640;48.504;9.224;2023-05-27T04:42:07;11.50;99.90
3256;DHT22;1640;48.504;9.224;2023-05-27T04:44:35;11.60;99.90
3256;DHT22;1640;48.504;9.224;2023-05-27T04:47:03;11.70;99.90
3256;DHT22;1640;48.504;9.224;2023-05-27T04:49:32;11.80;99.90
3256;DHT22;1640;48.504;9.224;2023-05-27T04:52:00;11.90;0.90
3256;DHT22;1640;48.504;9.224;2023-05-27T04:54:28;12.00;3.50
3256;DHT22;1640;48.504;9.224;2023-05-27T04:56:55;12.00;12.10
3256;DHT22;1640;48.504;9.224;2023-05-27T04:59:23;12.10;17.20
3256;DHT22;1640;48.504;9.224;2023-05-27T05:01:55;12.20;22.80
3256;DHT22;1640;48.504;9.224;2023-05-27T05:04:38;12.30;27.90
3256;DHT22;1640;48.504;9.224;2023-05-27T05:07:06;12.30;32.30
3256;DHT22;1640;48.504;9.224;2023-05-27T05:09:33;12.40;32.20
3256;DHT22;1640;48.504;9.224;2023-05-27T05:12:01;12.50;34.90
3256;DHT22;1640;48.504;9.224;2023-05-27T05:14:30;12.50;40.00
3256;DHT22;1640;48.504;9.224;2023-05-27T05:16:58;12.60;38.70
3256;DHT22;1640;48.504;9.224;2023-05-27T05:19:25;12.80;43.00
3256;DHT22;1640;48.504;9.224;2023-05-27T05:21:54;12.80;46.70
3256;DHT22;1640;48.504;9.224;2023-05-27T05:24:21;12.80;45.10
3256;DHT22;1640;48.504;9.224;2023-05-27T05:26:49;12.90;44.50
3256;DHT22;1640;48.504;9.224;2023-05-27T05:29:16;12.90;45.90
3256;DHT22;1640;48.504;9.224;2023-05-27T05:31:44;13.00;47.80
3256;DHT22;1640;48.504;9.224;2023-05-27T05:34:12;13.00;50.40
3256;DHT22;1640;48.504;9.224;2023-05-27T05:36:39;13.10;49.30
3256;DHT22;1640;48.504;9.224;2023-05-27T05:39:08;13.00;48.30
3256;DHT22;1640;48.504;9.224;2023-05-27T05:41:35;13.10;47.10
3256;DHT22;1640;48.504;9.224;2023-05-27T05:44:03;13.20;48.50
3256;DHT22;1640;48.504;9.224;2023-05-27T05:46:30;13.30;50.20
3256;DHT22;1640;48.504;9.224;2023-05-27T05:48:58;13.30;51.80
3256;DHT22;1640;48.504;9.224;2023-05-27T05:51:25;13.40;52.80
3256;DHT22;1640;48.504;9.224;2023-05-27T05:53:53;13.40;52.40
3256;DHT22;1640;48.504;9.224;2023-05-27T05:56:22;13.50;53.30
3256;DHT22;1640;48.504;9.224;2023-05-27T05:58:49;13.60;52.30
3256;DHT22;1640;48.504;9.224;2023-05-27T06:01:17;13.70;50.40
3256;DHT22;1640;48.504;9.224;2023-05-27T06:03:44;13.80;55.10
3256;DHT22;1640;48.504;9.224;2023-05-27T06:06:12;13.70;56.90
3256;DHT22;1640;48.504;9.224;2023-05-27T06:08:41;13.80;52.40
3256;DHT22;1640;48.504;9.224;2023-05-27T06:11:08;13.80;56.60
3256;DHT22;1640;48.504;9.224;2023-05-27T06:13:38;13.90;54.60
3256;DHT22;1640;48.504;9.224;2023-05-27T06:16:05;14.10;58.80
3256;DHT22;1640;48.504;9.224;2023-05-27T06:18:33;14.20;64.30
3256;DHT22;1640;48.504;9.224;2023-05-27T06:21:00;14.30;64.60
3256;DHT22;1640;48.504;9.224;2023-05-27T06:23:28;14.20;64.30
3256;DHT22;1640;48.504;9.224;2023-05-27T06:25:56;14.20;62.60
3256;DHT22;1640;48.504;9.224;2023-05-27T06:28:23;14.20;61.10
3256;DHT22;1640;48.504;9.224;2023-05-27T06:30:52;14.30;60.90
3256;DHT22;1640;48.504;9.224;2023-05-27T06:33:20;14.40;63.30
3256;DHT22;1640;48.504;9.224;2023-05-27T06:35:47;14.50;62.00
3256;DHT22;1640;48.504;9.224;2023-05-27T06:38:15;14.60;62.90
3256;DHT22;1640;48.504;9.224;2023-05-27T06:40:43;14.90;64.00
3256;DHT22;1640;48.504;9.224;2023-05-27T06:43:10;15.00;65.90
3256;DHT22;1640;48.504;9.224;2023-05-27T06:45:38;15.00;68.80
3256;DHT22;1640;48.504;9.224;2023-05-27T06:48:08;15.10;67.80
3256;DHT22;1640;48.504;9.224;2023-05-27T06:50:35;15.10;67.30
3256;DHT22;1640;48.504;9.224;2023-05-27T06:53:03;15.20;66.50
3256;DHT22;1640;48.504;9.224;2023-05-27T06:55:30;15.20;65.90
3256;DHT22;1640;48.504;9.224;2023-05-27T06:57:58;15.50;68.90
3256;DHT22;1640;48.504;9.224;2023-05-27T07:00:25;15.60;70.50
3256;DHT22;1640;48.504;9.224;2023-05-27T07:02:53;15.50;69.20
3256;DHT22;1640;48.504;9.224;2023-05-27T07:05:22;15.60;67.90
3256;DHT22;1640;48.504;9.224;2023-05-27T07:07:49;15.60;70.60
3256;DHT22;1640;48.504;9.224;2023-05-27T07:10:17;15.60;68.20
3256;DHT22;1640;48.504;9.224;2023-05-27T07:12:44;15.60;69.50
3256;DHT22;1640;48.504;9.224;2023-05-27T07:15:12;15.60;68.90
3256;DHT22;1640;48.504;9.224;2023-05-27T07:17:39;15.80;70.20
3256;DHT22;1640;48.504;9.224;2023-05-27T07:20:07;16.00;71.20
3256;DHT22;1640;48.504;9.224;2023-05-27T07:22:37;16.00;71.20
3256;DHT22;1640;48.504;9.224;2023-05-27T07:25:05;16.00;70.50
3256;DHT22;1640;48.504;9.224;2023-05-27T07:27:32;16.10;71.20
3256;DHT22;1640;48.504;9.224;2023-05-27T07:32:28;16.40;72.20
3256;DHT22;1640;48.504;9.224;2023-05-27T07:34:55;16.50;72.60
3256;DHT22;1640;48.504;9.224;2023-05-27T07:37:23;16.60;72.30
3256;DHT22;1640;48.504;9.224;2023-05-27T07:39:53;16.60;72.90
3256;DHT22;1640;48.504;9.224;2023-05-27T07:42:21;16.70;72.90
3256;DHT22;1640;48.504;9.224;2023-05-27T07:44:49;16.70;71.90
3256;DHT22;1640;48.504;9.224;2023-05-27T07:47:16;16.80;71.80
3256;DHT22;1640;48.504;9.224;2023-05-27T07:49:44;16.90;72.90
3256;DHT22;1640;48.504;9.224;2023-05-27T07:52:11;17.10;72.90
3256;DHT22;1640;48.504;9.224;2023-05-27T07:54:39;17.10;73.10
3256;DHT22;1640;48.504;9.224;2023-05-27T07:57:08;17.20;73.60
3256;DHT22;1640;48.504;9.224;2023-05-27T07:59:35;17.20;73.60
3256;DHT22;1640;48.504;9.224;2023-05-27T08:02:03;17.30;73.50
3256;DHT22;1640;48.504;9.224;2023-05-27T08:04:31;17.30;73.40
3256;DHT22;1640;48.504;9.224;2023-05-27T08:06:58;17.30;73.20
3256;DHT22;1640;48.504;9.224;2023-05-27T08:09:25;17.50;73.20
3256;DHT22;1640;48.504;9.224;2023-05-27T08:11:53;17.60;74.10
3256;DHT22;1640;48.504;9.224;2023-05-27T08:14:22;17.60;73.50
3256;DHT22;1640;48.504;9.224;2023-05-27T08:16:50;17.70;74.10
3256;DHT22;1640;48.504;9.224;2023-05-27T08:19:18;17.80;73.60
3256;DHT22;1640;48.504;9.224;2023-05-27T08:21:45;18.00;73.50
3256;DHT22;1640;48.504;9.224;2023-05-27T08:24:13;18.20;73.60
3256;DHT22;1640;48.504;9.224;2023-05-27T08:26:40;18.20;73.40
3256;DHT22;1640;48.504;9.224;2023-05-27T08:29:08;18.20;73.50
3256;DHT22;1640;48.504;9.224;2023-05-27T08:31:37;18.30;73.50
3256;DHT22;1640;48.504;9.224;2023-05-27T08:34:05;18.50;73.50
3256;DHT22;1640;48.504;9.224;2023-05-27T08:36:32;18.60;73.40
3256;DHT22;1640;48.504;9.224;2023-05-27T08:39:00;18.60;72.90
3256;DHT22;1640;48.504;9.224;2023-05-27T08:41:29;18.60;72.60
3256;DHT22;1640;48.504;9.224;2023-05-27T08:43:56;18.70;73.40
3256;DHT22;1640;48.504;9.224;2023-05-27T08:46:26;18.80;73.10
3256;DHT22;1640;48.504;9.224;2023-05-27T08:48:55;18.90;72.50
3256;DHT22;1640;48.504;9.224;2023-05-27T08:51:23;19.10;72.90
3256;DHT22;1640;48.504;9.224;2023-05-27T08:53:51;19.30;72.60
3256;DHT22;1640;48.504;9.224;2023-05-27T08:56:19;19.40;72.60
3256;DHT22;1640;48.504;9.224;2023-05-27T08:58:48;19.60;71.50
3256;DHT22;1640;48.504;9.224;2023-05-27T09:01:16;19.60;71.60
3256;DHT22;1640;48.504;9.224;2023-05-27T09:03:44;19.60;71.50
3256;DHT22;1640;48.504;9.224;2023-05-27T09:06:13;19.60;71.30
3256;DHT22;1640;48.504;9.224;2023-05-27T09:11:19;19.90;70.50
3256;DHT22;1640;48.504;9.224;2023-05-27T09:13:47;19.90;70.60
3256;DHT22;1640;48.504;9.224;2023-05-27T09:16:14;20.20;69.00
3256;DHT22;1640;48.504;9.224;2023-05-27T09:18:46;20.10;68.30
3256;DHT22;1640;48.504;9.224;2023-05-27T09:21:15;20.10;68.80
3256;DHT22;1640;48.504;9.224;2023-05-27T09:23:43;20.20;69.30
3256;DHT22;1640;48.504;9.224;2023-05-27T09:26:12;20.20;67.90
3256;DHT22;1640;48.504;9.224;2023-05-27T09:28:39;20.30;68.80
3256;DHT22;1640;48.504;9.224;2023-05-27T09:31:08;20.50;69.30
3256;DHT22;1640;48.504;9.224;2023-05-27T09:33:37;20.70;67.20
3256;DHT22;1640;48.504;9.224;2023-05-27T09:36:06;20.80;66.60
3256;DHT22;1640;48.504;9.224;2023-05-27T09:38:36;20.90;65.70
3256;DHT22;1640;48.504;9.224;2023-05-27T09:41:04;20.90;65.70
3256;DHT22;1640;48.504;9.224;2023-05-27T09:43:31;21.10;64.70
3256;DHT22;1640;48.504;9.224;2023-05-27T09:46:00;21.10;62.90
3256;DHT22;1640;48.504;9.224;2023-05-27T09:48:30;21.10;63.20
3256;DHT22;1640;48.504;9.224;2023-05-27T09:50:59;21.00;64.20
3256;DHT22;1640;48.504;9.224;2023-05-27T09:53:27;21.10;63.30
3256;DHT22;1640;48.504;9.224;2023-05-27T09:55:59;21.10;62.70
3256;DHT22;1640;48.504;9.224;2023-05-27T09:58:27;21.30;63.20
3256;DHT22;1640;48.504;9.224;2023-05-27T10:00:55;21.40;62.60
3256;DHT22;1640;48.504;9.224;2023-05-27T10:03:24;21.60;61.70
3256;DHT22;1640;48.504;9.224;2023-05-27T10:05:56;21.60;60.70
3256;DHT22;1640;48.504;9.224;2023-05-27T10:08:24;21.60;61.60
3256;DHT22;1640;48.504;9.224;2023-05-27T10:10:52;21.80;60.90
3256;DHT22;1640;48.504;9.224;2023-05-27T10:13:23;22.00;58.90
3256;DHT22;1640;48.504;9.224;2023-05-27T10:15:51;22.10;60.10
3256;DHT22;1640;48.504;9.224;2023-05-27T10:18:22;22.10;59.00
3256;DHT22;1640;48.504;9.224;2023-05-27T10:20:51;22.20;56.60
3256;DHT22;1640;48.504;9.224;2023-05-27T10:23:25;22.10;55.50
3256;DHT22;1640;48.504;9.224;2023-05-27T10:25:56;22.10;56.30
3256;DHT22;1640;48.504;9.224;2023-05-27T10:28:25;22.20;55.40
3256;DHT22;1640;48.504;9.224;2023-05-27T10:31:02;22.20;54.30
3256;DHT22;1640;48.504;9.224;2023-05-27T10:33:31;22.30;56.60
3256;DHT22;1640;48.504;9.224;2023-05-27T10:36:04;22.50;54.30
3256;DHT22;1640;48.504;9.224;2023-05-27T10:38:33;22.50;52.90
3256;DHT22;1640;48.504;9.224;2023-05-27T10:41:03;22.50;54.20
3256;DHT22;1640;48.504;9.224;2023-05-27T10:43:33;22.50;53.60
3256;DHT22;1640;48.504;9.224;2023-05-27T10:46:06;22.60;54.20
3256;DHT22;1640;48.504;9.224;2023-05-27T10:48:34;22.80;52.50
3256;DHT22;1640;48.504;9.224;2023-05-27T10:51:03;23.00;54.60
3256;DHT22;1640;48.504;9.224;2023-05-27T10:53:31;23.20;52.10
3256;DHT22;1640;48.504;9.224;2023-05-27T10:55:59;23.10;52.90
3256;DHT22;1640;48.504;9.224;2023-05-27T10:58:27;23.10;53.30
3256;DHT22;1640;48.504;9.224;2023-05-27T11:00:56;23.20;52.50
3256;DHT22;1640;48.504;9.224;2023-05-27T11:03:26;23.20;53.30
3256;DHT22;1640;48.504;9.224;2023-05-27T11:06:02;23.30;51.60
3256;DHT22;1640;48.504;9.224;2023-05-27T11:08:30;23.30;52.40
3256;DHT22;1640;48.504;9.224;2023-05-27T11:10:59;23.20;52.00
3256;DHT22;1640;48.504;9.224;2023-05-27T11:13:31;23.30;50.50
3256;DHT22;1640;48.504;9.224;2023-05-27T11:16:01;23.50;50.60
3256;DHT22;1640;48.504;9.224;2023-05-27T11:18:36;23.60;50.10
3256;DHT22;1640;48.504;9.224;2023-05-27T11:21:04;23.60;50.10
3256;DHT22;1640;48.504;9.224;2023-05-27T11:23:36;23.60;49.80
3256;DHT22;1640;48.504;9.224;2023-05-27T11:26:11;23.80;50.10
3256;DHT22;1640;48.504;9.224;2023-05-27T11:28:45;24.00;49.70
3256;DHT22;1640;48.504;9.224;2023-05-27T11:31:15;24.30;48.90
3256;DHT22;1640;48.504;9.224;2023-05-27T11:33:43;24.40;49.00
3256;DHT22;1640;48.504;9.224;2023-05-27T11:36:12;24.60;47.40
3256;DHT22;1640;48.504;9.224;2023-05-27T11:38:53;24.50;48.00
3256;DHT22;1640;48.504;9.224;2023-05-27T11:41:22;24.60;45.90
3256;DHT22;1640;48.504;9.224;2023-05-27T11:43:54;24.60;44.90
3256;DHT22;1640;48.504;9.224;2023-05-27T11:46:23;24.50;45.60
3256;DHT22;1640;48.504;9.224;2023-05-27T11:48:51;24.40;46.00
3256;DHT22;1640;48.504;9.224;2023-05-27T11:51:26;24.40;44.70
3256;DHT22;1640;48.504;9.224;2023-05-27T11:53:55;24.30;48.20
3256;DHT22;1640;48.504;9.224;2023-05-27T11:56:23;24.30;46.10
3256;DHT22;1640;48.504;9.224;2023-05-27T11:58:51;24.30;46.70
3256;DHT22;1640;48.504;9.224;2023-05-27T12:01:19;24.20;46.70
3256;DHT22;1640;48.504;9.224;2023-05-27T12:03:48;24.30;45.70
3256;DHT22;1640;48.504;9.224;2023-05-27T12:06:15;24.10;48.00
3256;DHT22;1640;48.504;9.224;2023-05-27T12:08:43;24.00;48.20
3256;DHT22;1640;48.504;9.224;2023-05-27T12:11:11;24.10;46.60
3256;DHT22;1640;48.504;9.224;2023-05-27T12:13:39;24.00;46.30
3256;DHT22;1640;48.504;9.224;2023-05-27T12:16:06;24.00;47.50
3256;DHT22;1640;48.504;9.224;2023-05-27T12:18:34;24.20;45.90
3256;DHT22;1640;48.504;9.224;2023-05-27T12:21:04;24.20;45.30
3256;DHT22;1640;48.504;9.224;2023-05-27T12:23:31;24.50;45.20
3256;DHT22;1640;48.504;9.224;2023-05-27T12:25:59;24.70;47.40
3256;DHT22;1640;48.504;9.224;2023-05-27T12:28:27;24.70;45.50
3256;DHT22;1640;48.504;9.224;2023-05-27T12:30:55;24.60;44.50
3256;DHT22;1640;48.504;9.224;2023-05-27T12:33:23;24.70;45.60
3256;DHT22;1640;48.504;9.224;2023-05-27T12:35:51;24.80;45.60
3256;DHT22;1640;48.504;9.224;2023-05-27T12:38:20;24.80;44.40
3256;DHT22;1640;48.504;9.224;2023-05-27T12:40:47;24.80;44.10
3256;DHT22;1640;48.504;9.224;2023-05-27T12:43:15;24.60;44.70
3256;DHT22;1640;48.504;9.224;2023-05-27T12:45:43;24.70;45.10
3256;DHT22;1640;48.504;9.224;2023-05-27T12:48:11;24.50;45.20
3256;DHT22;1640;48.504;9.224;2023-05-27T12:50:38;24.30;45.70
3256;DHT22;1640;48.504;9.224;2023-05-27T12:53:07;24.30;45.60
3256;DHT22;1640;48.504;9.224;2023-05-27T12:55:37;24.30;44.80
3256;DHT22;1640;48.504;9.224;2023-05-27T12:58:05;24.30;45.50
3256;DHT22;1640;48.504;9.224;2023-05-27T13:00:32;24.30;44.80
3256;DHT22;1640;48.504;9.224;2023-05-27T13:03:00;24.30;44.90
3256;DHT22;1640;48.504;9.224;2023-05-27T13:05:28;24.20;45.50
3256;DHT22;1640;48.504;9.224;2023-05-27T13:07:57;24.20;45.50
3256;DHT22;1640;48.504;9.224;2023-05-27T13:10:25;24.20;45.20
3256;DHT22;1640;48.504;9.224;2023-05-27T13:12:55;24.10;46.30
3256;DHT22;1640;48.504;9.224;2023-05-27T13:15:23;24.10;45.30
3256;DHT22;1640;48.504;9.224;2023-05-27T13:17:51;24.20;46.40
3256;DHT22;1640;48.504;9.224;2023-05-27T13:20:20;24.50;45.60
3256;DHT22;1640;48.504;9.224;2023-05-27T13:22:48;24.60;44.70
3256;DHT22;1640;48.504;9.224;2023-05-27T13:25:16;24.60;44.70
3256;DHT22;1640;48.504;9.224;2023-05-27T13:27:43;24.70;43.00
3256;DHT22;1640;48.504;9.224;2023-05-27T13:30:14;24.70;47.00
3256;DHT22;1640;48.504;9.224;2023-05-27T13:32:42;24.90;43.40
3256;DHT22;1640;48.504;9.224;2023-05-27T13:35:10;25.00;43.20
3256;DHT22;1640;48.504;9.224;2023-05-27T13:37:38;25.10;42.90
3256;DHT22;1640;48.504;9.224;2023-05-27T13:40:07;25.10;42.30
3256;DHT22;1640;48.504;9.224;2023-05-27T13:42:34;25.10;42.50
3256;DHT22;1640;48.504;9.224;2023-05-27T13:45:02;25.10;42.20
3256;DHT22;1640;48.504;9.224;2023-05-27T13:47:31;25.20;44.00
3256;DHT22;1640;48.504;9.224;2023-05-27T13:49:59;25.20;42.30
3256;DHT22;1640;48.504;9.224;2023-05-27T13:52:26;25.30;42.50
3256;DHT22;1640;48.504;9.224;2023-05-27T13:54:54;25.20;42.30
3256;DHT22;1640;48.504;9.224;2023-05-27T13:57:21;25.30;42.60
3256;DHT22;1640;48.504;9.224;2023-05-27T13:59:49;25.40;43.30
3256;DHT22;1640;48.504;9.224;2023-05-27T14:02:16;25.40;42.10
3256;DHT22;1640;48.504;9.224;2023-05-27T14:04:45;25.30;41.40
3256;DHT22;1640;48.504;9.224;2023-05-27T14:07:13;25.20;41.70
3256;DHT22;1640;48.504;9.224;2023-05-27T14:09:40;25.30;42.50
3256;DHT22;1640;48.504;9.224;2023-05-27T14:12:07;25.40;42.60
3256;DHT22;1640;48.504;9.224;2023-05-27T14:14:35;25.60;42.30
3256;DHT22;1640;48.504;9.224;2023-05-27T14:17:04;25.80;43.20
3256;DHT22;1640;48.504;9.224;2023-05-27T14:19:32;26.10;40.00
3256;DHT22;1640;48.504;9.224;2023-05-27T14:22:01;26.40;39.40
3256;DHT22;1640;48.504;9.224;2023-05-27T14:24:28;26.90;39.10
3256;DHT22;1640;48.504;9.224;2023-05-27T14:26:56;27.50;36.80
3256;DHT22;1640;48.504;9.224;2023-05-27T14:34:20;28.60;33.90
3256;DHT22;1640;48.504;9.224;2023-05-27T14:36:48;28.70;33.30
3256;DHT22;1640;48.504;9.224;2023-05-27T14:39:17;28.60;33.10
3256;DHT22;1640;48.504;9.224;2023-05-27T14:41:44;28.60;33.90
3256;DHT22;1640;48.504;9.224;2023-05-27T14:44:12;29.40;32.60
3256;DHT22;1640;48.504;9.224;2023-05-27T14:46:39;29.80;32.00
3256;DHT22;1640;48.504;9.224;2023-05-27T14:49:07;30.00;29.90
3256;DHT22;1640;48.504;9.224;2023-05-27T14:51:34;29.60;30.70
3256;DHT22;1640;48.504;9.224;2023-05-27T14:54:02;29.60;31.60
3256;DHT22;1640;48.504;9.224;2023-05-27T14:56:31;29.80;30.10
3256;DHT22;1640;48.504;9.224;2023-05-27T14:58:59;29.90;29.90
3256;DHT22;1640;48.504;9.224;2023-05-27T15:01:26;30.20;29.80
3256;DHT22;1640;48.504;9.224;2023-05-27T15:03:54;30.40;29.90
3256;DHT22;1640;48.504;9.224;2023-05-27T15:06:21;30.30;29.80
3256;DHT22;1640;48.504;9.224;2023-05-27T15:08:49;30.00;29.80
3256;DHT22;1640;48.504;9.224;2023-05-27T15:11:16;30.00;29.20
3256;DHT22;1640;48.504;9.224;2023-05-27T15:13:45;29.50;29.50
3256;DHT22;1640;48.504;9.224;2023-05-27T15:16:13;29.30;30.30
3256;DHT22;1640;48.504;9.224;2023-05-27T15:18:40;29.50;28.90
3256;DHT22;1640;48.504;9.224;2023-05-27T15:21:08;29.70;29.00
3256;DHT22;1640;48.504;9.224;2023-05-27T15:23:35;29.60;28.90
3256;DHT22;1640;48.504;9.224;2023-05-27T15:26:03;29.70;29.80
3256;DHT22;1640;48.504;9.224;2023-05-27T15:28:30;29.90;29.30
3256;DHT22;1640;48.504;9.224;2023-05-27T15:30:59;30.10;30.30
3256;DHT22;1640;48.504;9.224;2023-05-27T15:33:27;30.60;28.90
3256;DHT22;1640;48.504;9.224;2023-05-27T15:35:55;31.60;28.70
3256;DHT22;1640;48.504;9.224;2023-05-27T15:38:22;31.70;27.40
3256;DHT22;1640;48.504;9.224;2023-05-27T15:40:50;31.40;27.00
3256;DHT22;1640;48.504;9.224;2023-05-27T15:43:17;31.20;27.80
3256;DHT22;1640;48.504;9.224;2023-05-27T15:45:45;31.20;27.30
3256;DHT22;1640;48.504;9.224;2023-05-27T15:48:14;31.00;27.10
3256;DHT22;1640;48.504;9.224;2023-05-27T15:50:41;30.90;27.70
3256;DHT22;1640;48.504;9.224;2023-05-27T15:53:09;30.60;27.40
3256;DHT22;1640;48.504;9.224;2023-05-27T15:55:37;30.70;27.80
3256;DHT22;1640;48.504;9.224;2023-05-27T15:58:04;31.20;27.70
3256;DHT22;1640;48.504;9.224;2023-05-27T16:00:32;31.20;27.50
3256;DHT22;1640;48.504;9.224;2023-05-27T16:03:00;31.40;27.90
3256;DHT22;1640;48.504;9.224;2023-05-27T16:05:29;31.10;27.00
3256;DHT22;1640;48.504;9.224;2023-05-27T16:07:57;31.40;27.40
3256;DHT22;1640;48.504;9.224;2023-05-27T16:10:24;31.40;27.00
3256;DHT22;1640;48.504;9.224;2023-05-27T16:12:52;31.10;27.50
3256;DHT22;1640;48.504;9.224;2023-05-27T16:15:19;30.40;27.90
3256;DHT22;1640;48.504;9.224;2023-05-27T16:17:47;30.40;28.50
3256;DHT22;1640;48.504;9.224;2023-05-27T16:20:14;30.50;28.20